createdAt,value
2023-03-23T15:59:49.686Z,14.40
2023-03-23T16:02:22.830Z,14.40
2023-03-23T16:04:51.507Z,14.40
2023-03-23T16:07:23.205Z,14.40
2023-03-23T16:09:51.263Z,14.50
2023-03-23T16:12:19.271Z,14.50
2023-03-23T16:14:48.659Z,14.50
2023-03-23T16:17:21.606Z,14.40
2023-03-23T16:19:49.906Z,14.50
2023-03-23T16:22:18.760Z,14.50
2023-03-23T16:24:47.226Z,14.70
2023-03-23T16:27:15.373Z,14.80
2023-03-23T16:30:02.041Z,14.90
2023-03-23T16:34:59.728Z,14.80
2023-03-23T16:37:33.088Z,14.80
2023-03-23T16:40:01.376Z,14.70
2023-03-23T16:42:29.457Z,14.70
2023-03-23T16:44:57.500Z,14.70
2023-03-23T16:47:26.079Z,14.70
2023-03-23T16:49:55.641Z,14.60
2023-03-23T16:52:23.677Z,14.60
2023-03-23T16:54:51.765Z,14.60
2023-03-23T16:57:20.000Z,14.50
2023-03-23T16:59:48.024Z,14.60
2023-03-23T17:02:16.090Z,14.60
2023-03-23T17:04:45.082Z,14.60
2023-03-23T17:07:15.349Z,14.50
2023-03-23T17:09:43.382Z,14.60
2023-03-23T17:12:11.531Z,14.60
2023-03-23T17:14:39.553Z,14.60
2023-03-23T17:17:09.203Z,14.60
2023-03-23T17:19:37.332Z,14.60
2023-03-23T17:22:07.255Z,14.60
2023-03-23T17:24:36.616Z,14.60
2023-03-23T17:27:04.739Z,14.50
2023-03-23T17:29:33.242Z,14.50
2023-03-23T17:32:01.279Z,14.40
2023-03-23T17:34:29.300Z,14.40
2023-03-23T17:36:57.336Z,14.40
2023-03-23T17:39:25.315Z,14.30
2023-03-23T17:41:54.731Z,14.30
2023-03-23T17:44:22.941Z,14.10
2023-03-23T17:46:50.997Z,14.20
2023-03-23T17:49:19.343Z,14.10
2023-03-23T17:51:47.376Z,14.10
2023-03-23T17:54:15.649Z,14.10
2023-03-23T17:56:43.699Z,14.10
2023-03-23T17:59:13.336Z,14.10
2023-03-23T18:01:41.350Z,14.10
2023-03-23T18:04:09.477Z,14.10
2023-03-23T18:06:37.495Z,14.10
2023-03-23T18:09:05.681Z,14.10
2023-03-23T18:11:33.738Z,14.10
2023-03-23T18:14:01.746Z,14.10
2023-03-23T18:16:31.482Z,14.00
2023-03-23T18:18:59.524Z,14.00
2023-03-23T18:21:27.996Z,13.90
2023-03-23T18:23:59.490Z,13.80
2023-03-23T18:26:29.331Z,13.70
2023-03-23T18:28:57.649Z,13.70
2023-03-23T18:31:25.760Z,13.60
2023-03-23T18:33:55.773Z,13.70
2023-03-23T18:36:25.887Z,13.70
2023-03-23T18:38:57.239Z,13.70
2023-03-23T18:41:26.077Z,13.60
2023-03-23T18:43:56.218Z,13.50
2023-03-23T18:46:25.100Z,13.40
2023-03-23T18:48:54.531Z,13.40
2023-03-23T18:51:22.992Z,13.30
2023-03-23T18:53:51.013Z,13.20
2023-03-23T18:56:19.213Z,13.20
2023-03-23T18:58:47.679Z,13.10
2023-03-23T19:01:17.745Z,13.10
2023-03-23T19:03:47.404Z,13.10
2023-03-23T19:06:19.373Z,13.20
2023-03-23T19:08:47.712Z,13.30
2023-03-23T19:11:16.985Z,13.40
2023-03-23T19:13:58.162Z,13.50
2023-03-23T19:16:31.035Z,13.50
2023-03-23T19:18:59.268Z,13.50
2023-03-23T19:21:29.916Z,13.60
2023-03-23T19:23:59.474Z,13.70
2023-03-23T19:26:33.131Z,13.70
2023-03-23T19:29:25.306Z,13.70
2023-03-23T19:31:51.131Z,13.70
2023-03-23T19:34:19.185Z,13.70
2023-03-23T19:36:55.090Z,13.60
2023-03-23T19:39:31.283Z,13.70
2023-03-23T19:41:59.442Z,13.70
2023-03-23T19:44:28.693Z,13.70
2023-03-23T19:46:57.625Z,13.80
2023-03-23T19:49:26.704Z,13.70
2023-03-23T19:52:06.518Z,13.70
2023-03-23T19:54:39.045Z,13.70
2023-03-23T19:57:07.961Z,13.70
2023-03-23T19:59:36.349Z,13.70
2023-03-23T20:02:04.669Z,13.80
2023-03-23T20:04:33.009Z,13.70
2023-03-23T20:07:05.918Z,13.70
2023-03-23T20:09:35.790Z,13.70
2023-03-23T20:12:05.010Z,13.80
2023-03-23T20:14:33.415Z,13.80
2023-03-23T20:17:01.663Z,13.70
2023-03-23T20:19:29.706Z,13.90
2023-03-23T20:21:57.737Z,13.90
2023-03-23T20:24:27.221Z,14.00
2023-03-23T20:26:55.610Z,13.90
2023-03-23T20:29:23.900Z,13.90
2023-03-23T20:31:52.162Z,14.00
2023-03-23T20:34:31.818Z,14.10
2023-03-23T20:37:02.597Z,14.00
2023-03-23T20:39:33.789Z,14.00
2023-03-23T20:42:03.345Z,14.00
2023-03-23T20:44:36.058Z,14.00
2023-03-23T20:47:04.710Z,14.00
2023-03-23T20:49:34.671Z,14.00
2023-03-23T20:52:03.240Z,14.10
2023-03-23T20:54:32.689Z,14.00
2023-03-23T20:57:00.972Z,14.00
2023-03-23T20:59:29.275Z,13.90
2023-03-23T21:01:57.363Z,13.90
2023-03-23T21:04:27.098Z,13.90
2023-03-23T21:06:55.775Z,13.90
2023-03-23T21:09:24.687Z,13.90
2023-03-23T21:11:54.259Z,13.80
2023-03-23T21:14:22.405Z,13.80
2023-03-23T21:16:50.538Z,13.80
2023-03-23T21:19:19.450Z,13.80
2023-03-23T21:21:56.220Z,13.70
2023-03-23T21:24:28.001Z,13.80
2023-03-23T21:26:59.700Z,13.90
2023-03-23T21:29:28.441Z,13.80
2023-03-23T21:34:29.299Z,13.70
2023-03-23T21:36:57.334Z,13.70
2023-03-23T21:39:26.128Z,13.70
2023-03-23T21:41:54.244Z,13.60
2023-03-23T21:44:24.057Z,13.60
2023-03-23T21:46:54.302Z,13.50
2023-03-23T21:49:22.445Z,13.50
2023-03-23T21:51:50.508Z,13.40
2023-03-23T21:54:18.535Z,13.40
2023-03-23T21:56:46.603Z,13.40
2023-03-23T21:59:14.645Z,13.20
2023-03-23T22:01:44.093Z,13.20
2023-03-23T22:04:12.215Z,13.20
2023-03-23T22:06:40.863Z,13.10
2023-03-23T22:09:09.606Z,13.10
2023-03-23T22:11:39.353Z,13.10
2023-03-23T22:14:07.942Z,13.00
2023-03-23T22:16:36.324Z,12.90
2023-03-23T22:19:06.537Z,12.80
2023-03-23T22:21:34.638Z,12.80
2023-03-23T22:24:03.074Z,12.70
2023-03-23T22:26:31.587Z,12.70
2023-03-23T22:29:00.862Z,12.70
2023-03-23T22:31:32.461Z,12.60
2023-03-23T22:34:01.530Z,12.60
2023-03-23T22:36:33.203Z,12.50
2023-03-23T22:39:02.101Z,12.40
2023-03-23T22:41:33.373Z,12.30
2023-03-23T22:44:04.538Z,12.30
2023-03-23T22:46:32.964Z,12.30
2023-03-23T22:49:01.066Z,12.30
2023-03-23T22:51:31.533Z,12.20
2023-03-23T22:53:59.728Z,12.20
2023-03-23T22:56:27.957Z,12.20
2023-03-23T22:58:56.361Z,12.20
2023-03-23T23:01:24.772Z,12.10
2023-03-23T23:03:53.143Z,12.10
2023-03-23T23:06:21.996Z,12.10
2023-03-23T23:08:51.699Z,12.10
2023-03-23T23:11:22.626Z,12.10
2023-03-23T23:13:51.022Z,12.10
2023-03-23T23:16:22.091Z,12.10
2023-03-23T23:18:50.435Z,12.10
2023-03-23T23:21:21.240Z,12.10
2023-03-23T23:23:51.789Z,12.10
2023-03-23T23:26:20.865Z,12.10
2023-03-23T23:28:49.851Z,12.00
2023-03-23T23:31:22.615Z,12.10
2023-03-23T23:33:51.282Z,12.00
2023-03-23T23:36:21.195Z,12.10
2023-03-23T23:38:51.511Z,12.10
2023-03-23T23:41:19.619Z,12.10
2023-03-23T23:43:47.701Z,12.10
2023-03-23T23:46:16.145Z,12.20
2023-03-23T23:48:45.048Z,12.20
2023-03-23T23:51:15.329Z,12.20
2023-03-23T23:53:44.099Z,12.20
2023-03-23T23:56:14.715Z,12.20
2023-03-23T23:58:42.820Z,12.20
